Time;durP1;ratioP1;P1;durP2;ratioP2;P2;SDS_P1;SDS_P2;PMS_P1;PMS_P2;Temp;Humidity;BMP_temperature;BMP_pressure;BME280_temperature;BME280_humidity;BME280_pressure;Samples;Min_cycle;Max_cycle;Signal;HPM_P1;HPM_P2
2022/09/05 00:00:18;;;;;;;4.07;3.53;;;;;;;25.35;59.20;101662.94;5014831;28;20060;-73
2022/09/05 00:03:07;;;;;;;6.37;3.53;;;;;;;25.34;59.28;101661.25;5025315;28;20059;-73
2022/09/05 00:05:53;;;;;;;4.25;3.40;;;;;;;25.35;59.33;101668.38;5031789;28;20291;-73
2022/09/05 00:08:56;;;;;;;4.53;3.50;;;;;;;25.34;59.48;101655.81;5032627;28;20053;-73
2022/09/05 00:11:46;;;;;;;4.45;3.72;;;;;;;25.34;59.36;101656.69;5121621;27;20051;-73
2022/09/05 00:14:29;;;;;;;4.28;3.75;;;;;;;25.34;59.27;101653.13;5132919;27;20039;-73
2022/09/05 00:17:36;;;;;;;4.10;3.58;;;;;;;25.34;59.36;101664.81;5134117;27;20047;-73
2022/09/05 00:20:39;;;;;;;3.53;3.20;;;;;;;25.34;59.47;101658.53;5134840;27;20043;-72
2022/09/05 00:23:35;;;;;;;4.57;3.47;;;;;;;25.34;59.39;101655.81;5134766;27;20051;-72
2022/09/05 00:26:46;;;;;;;6.50;3.40;;;;;;;25.34;59.24;101653.13;5092753;28;20051;-73
2022/09/05 00:29:35;;;;;;;4.45;3.67;;;;;;;25.34;59.35;101653.13;5093668;28;20048;-73
2022/09/05 00:32:23;;;;;;;5.43;4.07;;;;;;;25.34;59.26;101653.97;5093686;28;20047;-73
2022/09/05 00:35:08;;;;;;;4.70;3.17;;;;;;;25.33;59.41;101649.56;5094435;28;20040;-74
2022/09/05 00:37:41;;;;;;;4.20;3.45;;;;;;;25.34;59.31;101650.41;5093526;28;20048;-74
2022/09/05 00:40:17;;;;;;;;;;;;;;;25.33;59.50;101644.13;5094109;28;20048;-73
2022/09/05 00:43:05;;;;;;;3.60;3.30;;;;;;;25.34;59.21;101647.69;5093414;28;19927;-73
2022/09/05 00:46:09;;;;;;;3.53;3.22;;;;;;;25.35;59.34;101652.09;5092414;28;20403;-73
2022/09/05 00:49:01;;;;;;;4.00;3.70;;;;;;;25.34;59.41;101647.69;5091996;28;20056;-73
2022/09/05 00:51:38;;;;;;;4.32;3.83;;;;;;;25.34;59.33;101645.00;5093222;28;20048;-73
2022/09/05 00:54:18;;;;;;;5.13;4.03;;;;;;;25.34;59.45;101645.00;5092906;28;20051;-73
2022/09/05 00:56:54;;;;;;;3.95;3.55;;;;;;;25.34;59.22;101639.56;5093870;28;20048;-73
2022/09/05 00:59:58;;;;;;;3.28;2.97;;;;;;;25.33;59.26;101638.72;5093064;28;20060;-73
2022/09/05 01:02:50;;;;;;;4.05;3.65;;;;;;;25.33;59.25;101625.16;5093347;28;20055;-73
2022/09/05 01:05:46;;;;;;;3.97;3.58;;;;;;;25.34;59.23;101629.56;5090970;28;20048;-73
2022/09/05 01:08:23;;;;;;;3.75;3.35;;;;;;;25.34;59.21;101620.59;5122540;28;20478;-73
2022/09/05 01:11:02;;;;;;;4.20;3.70;;;;;;;25.33;59.32;101625.16;5132150;28;20051;-73
2022/09/05 01:13:58;;;;;;;6.13;3.60;;;;;;;25.33;59.34;101627.88;5134102;28;20039;-73
2022/09/05 01:17:05;;;;;;;4.85;3.58;;;;;;;25.34;59.27;101628.72;5132650;28;20054;-74
2022/09/05 01:20:11;;;;;;;4.20;3.80;;;;;;;25.34;59.38;101642.28;5132960;28;20051;-73
2022/09/05 01:22:49;;;;;;;4.20;3.80;;;;;;;25.33;59.33;101643.28;5133768;28;20066;-73
2022/09/05 01:25:39;;;;;;;4.57;4.00;;;;;;;25.34;59.27;101645.84;5123171;28;20040;-73
2022/09/05 01:28:23;;;;;;;4.55;3.78;;;;;;;25.32;59.25;101645.16;5111217;28;20047;-73
2022/09/05 01:31:25;;;;;;;5.00;3.90;;;;;;;25.33;59.28;101646.00;5113401;28;20422;-73
2022/09/05 01:34:24;;;;;;;4.20;3.72;;;;;;;25.33;59.18;101646.00;5113203;28;20410;-73
2022/09/05 01:37:08;;;;;;;4.60;3.83;;;;;;;25.34;59.11;101643.13;5113372;28;20047;-73
2022/09/05 01:40:22;;;;;;;4.32;3.92;;;;;;;25.33;59.12;101640.59;5113483;28;20044;-73
2022/09/05 01:43:37;;;;;;;4.40;4.00;;;;;;;25.33;59.19;101643.28;5113286;28;20497;-73
2022/09/05 01:46:50;;;;;;;5.13;4.03;;;;;;;25.32;59.17;101642.44;5111999;28;20048;-73
2022/09/05 01:50:03;;;;;;;4.13;3.72;;;;;;;25.33;59.19;101643.28;5113191;28;20052;-73
2022/09/05 01:52:51;;;;;;;4.85;4.38;;;;;;;25.33;59.26;101632.44;5110994;28;20052;-73
2022/09/05 01:55:55;;;;;;;4.75;4.35;;;;;;;25.32;59.08;101642.44;5112771;28;20050;-73
2022/09/05 01:58:56;;;;;;;4.38;3.97;;;;;;;25.33;59.05;101648.72;5113352;28;20479;-73
2022/09/05 02:01:36;;;;;;;4.38;3.95;;;;;;;25.32;58.95;101647.88;5113295;28;20047;-73
2022/09/05 02:04:12;;;;;;;5.50;4.18;;;;;;;25.32;58.99;101649.69;5113084;28;20039;-73
2022/09/05 02:06:39;;;;;;;4.80;3.70;;;;;;;25.32;58.93;101653.28;5117771;27;20050;-73
2022/09/05 02:09:49;;;;;;;4.50;4.10;;;;;;;25.32;58.91;101652.41;5137596;27;20039;-73
2022/09/05 02:12:54;;;;;;;4.95;4.45;;;;;;;25.33;58.87;101654.13;5136871;27;20050;-73
2022/09/05 02:15:55;;;;;;;4.18;3.78;;;;;;;25.31;58.83;101661.53;5137065;27;20039;-73
2022/09/05 02:18:43;;;;;;;5.38;4.35;;;;;;;25.32;58.85;101658.69;5136886;27;20051;-73
2022/09/05 02:21:24;;;;;;;4.55;4.05;;;;;;;25.33;58.83;101662.25;5137011;27;20050;-73
2022/09/05 02:24:00;;;;;;;4.35;3.63;;;;;;;25.31;58.77;101661.53;5136232;27;20047;-72
2022/09/05 02:26:41;;;;;;;5.20;4.70;;;;;;;25.32;58.88;101658.69;5121870;27;20376;-72
2022/09/05 02:29:23;;;;;;;4.55;4.15;;;;;;;25.31;58.72;101653.41;5113233;28;20106;-73
2022/09/05 02:32:22;;;;;;;5.15;4.05;;;;;;;25.32;58.93;101669.53;5116184;28;20055;-73
2022/09/05 02:35:08;;;;;;;3.97;3.58;;;;;;;25.32;58.87;101664.13;5078405;27;20060;-73
2022/09/05 02:37:45;;;;;;;4.88;4.03;;;;;;;25.33;59.04;101667.69;5116188;28;20050;-73
2022/09/05 02:40:35;;;;;;;;;;;;;;;25.31;58.66;101666.97;5116603;28;20050;-73
2022/09/05 02:43:46;;;;;;;4.63;4.22;;;;;;;25.30;58.46;101659.84;5116049;28;19919;-73
2022/09/05 02:46:43;;;;;;;5.00;4.50;;;;;;;25.28;58.26;101657.31;5115921;28;20044;-73
2022/09/05 02:49:17;;;;;;;6.40;4.80;;;;;;;25.28;58.36;101656.41;5114795;28;20043;-73
2022/09/05 02:52:08;;;;;;;5.30;4.80;;;;;;;25.27;58.72;101662.84;5116111;28;20384;-75
2022/09/05 02:54:59;;;;;;;4.88;4.38;;;;;;;25.26;58.16;101658.44;5116162;28;20043;-73
2022/09/05 02:58:25;;;;;;;8.05;5.18;;;;;;;25.23;58.30;101667.72;5115802;28;20495;-73
2022/09/05 03:01:31;;;;;;;5.45;4.93;;;;;;;25.21;58.10;101663.47;5115590;28;20399;-73
2022/09/05 03:04:26;;;;;;;5.00;4.57;;;;;;;25.20;58.26;101667.16;5115508;28;20043;-73
2022/09/05 03:06:56;;;;;;;5.95;4.63;;;;;;;25.20;58.42;101664.44;5118852;27;20035;-73
2022/09/05 03:09:35;;;;;;;5.78;4.28;;;;;;;25.19;58.42;101666.31;5136265;27;20043;-73
2022/09/05 03:12:18;;;;;;;4.70;4.20;;;;;;;25.19;58.08;101655.47;5135869;27;20054;-73
2022/09/05 03:15:35;;;;;;;5.47;4.97;;;;;;;25.19;58.25;101663.59;5135267;27;20053;-74
2022/09/05 03:18:44;;;;;;;6.18;5.13;;;;;;;25.17;58.06;101660.22;5136100;27;20482;-73
2022/09/05 03:21:36;;;;;;;5.43;4.93;;;;;;;25.16;58.13;101658.50;5100468;27;20047;-73
2022/09/05 03:24:40;;;;;;;6.05;4.85;;;;;;;25.16;58.11;101658.50;5135618;27;20104;-73
2022/09/05 03:31:48;;;;;;;6.00;5.13;;;;;;;25.13;58.11;101659.66;5093233;28;20043;-74
2022/09/05 03:34:27;;;;;;;6.32;5.07;;;;;;;25.12;58.25;101657.94;5094805;28;20052;-74
2022/09/05 03:37:13;;;;;;;7.05;4.45;;;;;;;25.13;58.10;101656.94;5094140;28;20033;-74
2022/09/05 03:39:59;;;;;;;5.80;5.25;;;;;;;25.12;58.26;101657.94;5094285;28;20047;-74
2022/09/05 03:42:53;;;;;;;8.10;5.22;;;;;;;25.12;58.19;101666.09;5094270;28;20063;-74
2022/09/05 03:45:34;;;;;;;6.03;5.07;;;;;;;25.10;58.43;101667.22;5094164;28;20043;-74
2022/09/05 03:48:40;;;;;;;6.00;5.35;;;;;;;25.09;58.35;101671.78;5094419;28;20048;-74
2022/09/05 03:51:26;;;;;;;4.95;4.45;;;;;;;25.10;58.32;101665.34;5094476;28;20040;-75
2022/09/05 03:54:43;;;;;;;5.43;4.93;;;;;;;25.10;58.38;101676.19;5094043;28;20044;-75
2022/09/05 03:57:43;;;;;;;6.13;5.22;;;;;;;25.09;58.03;101669.06;5094093;28;20040;-74
2022/09/05 04:00:24;;;;;;;5.75;5.28;;;;;;;25.07;58.03;101673.75;5093953;28;20403;-73
2022/09/05 04:03:14;;;;;;;6.68;5.00;;;;;;;25.05;58.05;101664.94;5094278;28;20043;-74
2022/09/05 04:06:09;;;;;;;9.27;4.70;;;;;;;25.05;58.22;101662.22;5093425;28;20051;-74
2022/09/05 04:09:21;;;;;;;4.55;4.13;;;;;;;25.03;58.09;101666.91;5092035;28;20067;-74
2022/09/05 04:12:19;;;;;;;5.63;5.07;;;;;;;25.02;58.01;101667.94;5093834;28;20050;-74
2022/09/05 04:15:06;;;;;;;8.27;4.70;;;;;;;25.03;58.08;101669.63;5094055;28;20055;-75
2022/09/05 04:17:45;;;;;;;5.30;4.80;;;;;;;25.04;58.42;101675.94;5091935;28;20368;-74
2022/09/05 04:20:24;;;;;;;5.55;5.00;;;;;;;25.04;58.45;101684.91;5093741;28;20059;-74
2022/09/05 04:23:05;;;;;;;6.00;5.30;;;;;;;25.04;58.48;101678.63;5093465;28;20051;-74
2022/09/05 04:25:53;;;;;;;4.57;4.18;;;;;;;25.04;58.36;101686.75;5094119;28;20048;-75
2022/09/05 04:29:02;;;;;;;7.05;4.90;;;;;;;25.05;58.41;101691.19;5100789;28;20043;-75
2022/09/05 04:32:01;;;;;;;6.28;5.35;;;;;;;25.03;58.08;101685.88;5112283;28;20035;-74
2022/09/05 04:35:11;;;;;;;5.80;5.20;;;;;;;25.04;58.30;101690.31;5113085;28;20044;-74
2022/09/05 04:37:57;;;;;;;6.20;5.60;;;;;;;25.03;58.36;101685.03;5113541;28;20052;-74
2022/09/05 04:40:33;;;;;;;5.68;5.18;;;;;;;25.01;58.33;101687.91;5113662;28;20058;-74
2022/09/05 04:43:38;;;;;;;8.55;5.13;;;;;;;25.00;58.38;101686.22;5114183;28;20137;-74
2022/09/05 04:46:08;;;;;;;5.85;5.35;;;;;;;25.00;58.58;101697.03;5031685;28;20049;-74
2022/09/05 04:49:07;;;;;;;5.88;5.38;;;;;;;25.00;58.40;101697.03;5030961;28;20057;-75
2022/09/05 04:52:01;;;;;;;5.93;4.85;;;;;;;25.01;58.35;101696.03;5020459;28;20061;-74
2022/09/05 04:54:32;;;;;;;5.68;4.80;;;;;;;25.01;58.23;101697.91;5031311;28;20445;-74
2022/09/05 04:57:11;;;;;;;5.80;5.32;;;;;;;25.01;58.29;101693.31;5014586;28;20068;-74
2022/09/05 04:59:43;;;;;;;6.13;5.00;;;;;;;25.00;58.68;101686.22;5031271;28;20053;-74
2022/09/05 05:02:41;;;;;;;5.85;5.30;;;;;;;25.01;58.31;101695.19;5030736;28;20053;-74
2022/09/05 05:05:37;;;;;;;7.03;4.57;;;;;;;25.00;58.25;101697.03;5031146;28;20410;-74
2022/09/05 05:08:24;;;;;;;6.20;5.28;;;;;;;25.01;58.43;101698.75;5046664;28;20513;-74
2022/09/05 05:11:12;;;;;;;6.03;5.43;;;;;;;25.00;58.19;101707.03;5050918;28;20488;-74
2022/09/05 05:14:26;;;;;;;5.85;5.35;;;;;;;25.00;58.29;101707.88;5050985;28;20045;-74
2022/09/05 05:17:19;;;;;;;5.28;4.80;;;;;;;24.99;58.39;101711.56;5033651;28;20057;-74
2022/09/05 05:20:16;;;;;;;5.72;4.90;;;;;;;25.00;58.24;101717.88;5050644;28;20619;-74
2022/09/05 05:23:08;;;;;;;5.95;5.30;;;;;;;25.00;58.37;101726.00;5092620;28;20114;-74
2022/09/05 05:26:08;;;;;;;5.97;4.75;;;;;;;25.00;58.25;101734.97;5134054;28;20409;-74
2022/09/05 05:28:46;;;;;;;5.03;4.20;;;;;;;25.00;58.26;101734.97;5050501;28;20431;-74
2022/09/05 05:31:28;;;;;;;6.20;5.18;;;;;;;25.00;58.24;101732.25;5027879;28;20425;-74
2022/09/05 05:34:02;;;;;;;4.90;4.40;;;;;;;25.01;58.21;101730.41;5031173;28;20061;-74
2022/09/05 05:36:59;;;;;;;4.85;4.38;;;;;;;25.00;58.50;101728.69;5030899;28;20049;-75
2022/09/05 05:39:28;;;;;;;5.25;4.57;;;;;;;25.00;58.42;101734.97;5032909;28;20065;-74
2022/09/05 05:41:57;;;;;;;5.28;4.35;;;;;;;25.00;58.55;101740.38;5034465;28;20042;-74
2022/09/05 05:44:51;;;;;;;4.63;4.22;;;;;;;25.02;58.51;101737.53;5035277;28;20405;-74
2022/09/05 05:47:52;;;;;;;5.20;4.70;;;;;;;25.01;58.35;101742.09;5034362;28;20049;-74
2022/09/05 05:50:32;;;;;;;7.47;4.00;;;;;;;25.01;58.28;101733.13;5034478;28;20057;-74
2022/09/05 05:53:30;;;;;;;5.38;4.32;;;;;;;25.02;58.28;101737.53;5034247;28;20065;-74
2022/09/05 05:56:27;;;;;;;4.85;4.35;;;;;;;25.02;58.17;101734.81;5034015;28;20049;-74
2022/09/05 05:59:20;;;;;;;5.47;4.65;;;;;;;25.02;58.23;101743.78;5034615;28;20061;-74
2022/09/05 06:02:36;;;;;;;5.60;4.45;;;;;;;25.03;58.23;101745.50;5029143;28;20065;-74
2022/09/05 06:05:25;;;;;;;4.78;4.28;;;;;;;25.05;58.25;101748.06;5028621;28;20067;-75
2022/09/05 06:08:08;;;;;;;4.65;4.25;;;;;;;25.04;58.20;101749.09;5106742;28;20471;-74
2022/09/05 06:11:23;;;;;;;5.38;4.88;;;;;;;25.03;58.27;101759.03;5116919;28;20620;-74
2022/09/05 06:14:37;;;;;;;6.22;4.78;;;;;;;25.03;58.26;101750.91;5116778;28;20048;-75
2022/09/05 06:17:27;;;;;;;5.63;5.05;;;;;;;25.03;58.47;101747.34;5101189;28;20051;-73
2022/09/05 06:20:34;;;;;;;6.47;5.45;;;;;;;25.02;58.36;101751.91;5116796;28;20047;-73
2022/09/05 06:23:55;;;;;;;5.75;5.25;;;;;;;25.03;58.41;101750.91;5116521;28;20051;-72
2022/09/05 06:27:01;;;;;;;7.18;6.15;;;;;;;25.01;57.90;101752.06;5116825;28;20043;-72
2022/09/05 06:29:40;;;;;;;8.18;6.28;;;;;;;25.00;58.16;101756.66;5033302;28;20061;-73
2022/09/05 06:32:46;;;;;;;6.55;5.32;;;;;;;24.97;58.08;101756.06;5030143;28;20058;-73
2022/09/05 06:35:42;;;;;;;6.38;4.53;;;;;;;24.97;58.24;101756.06;5034684;28;20053;-73
2022/09/05 06:38:50;;;;;;;6.07;5.07;;;;;;;24.99;58.38;101754.91;5034765;28;20064;-73
2022/09/05 06:41:58;;;;;;;7.25;6.38;;;;;;;25.00;58.49;101762.06;5017087;28;20058;-73
2022/09/05 06:45:04;;;;;;;6.65;5.95;;;;;;;25.01;58.71;101758.34;4974417;28;20077;-73
2022/09/05 06:48:02;;;;;;;9.43;6.53;;;;;;;25.01;58.43;101758.34;4974387;28;20047;-72
2022/09/05 06:50:52;;;;;;;7.70;5.97;;;;;;;24.99;58.10;101752.19;4973505;28;20063;-72
2022/09/05 06:53:58;;;;;;;7.75;6.18;;;;;;;25.00;58.21;101756.66;4973935;28;20054;-72
2022/09/05 06:56:28;;;;;;;8.40;6.60;;;;;;;24.99;57.92;101757.63;4990159;28;20054;-72
2022/09/05 06:59:35;;;;;;;6.93;5.63;;;;;;;24.97;58.22;101756.06;4993972;28;20066;-72
2022/09/05 07:02:22;;;;;;;10.00;6.68;;;;;;;24.97;57.94;101769.63;4992717;28;20058;-72
2022/09/05 07:05:29;;;;;;;7.35;6.60;;;;;;;24.97;58.39;101772.34;5031440;28;20052;-72
2022/09/05 07:08:43;;;;;;;7.45;6.75;;;;;;;24.95;58.59;101768.91;5058824;28;20060;-72
2022/09/05 07:11:20;;;;;;;8.25;7.03;;;;;;;24.92;58.62;101770.06;5035155;28;20054;-72
2022/09/05 07:13:53;;;;;;;11.52;7.57;;;;;;;24.92;58.84;101770.06;5033172;28;20425;-72
2022/09/05 07:16:40;;;;;;;8.48;6.28;;;;;;;24.91;59.09;101776.47;5090257;28;20387;-72
2022/09/05 07:19:33;;;;;;;7.00;6.30;;;;;;;24.92;59.07;101770.06;5094882;28;20052;-72
2022/09/05 07:22:31;;;;;;;8.32;7.18;;;;;;;24.93;59.27;101771.75;5095149;28;20044;-72
2022/09/05 07:25:20;;;;;;;8.55;7.80;;;;;;;24.91;59.16;101769.22;5093969;28;20048;-73
2022/09/05 07:28:02;;;;;;;9.70;8.35;;;;;;;24.91;58.58;101766.50;5094521;28;20044;-72
2022/09/05 07:30:58;;;;;;;10.00;7.88;;;;;;;24.90;58.87;101767.47;5094258;28;20048;-72
2022/09/05 07:33:29;;;;;;;7.82;7.03;;;;;;;24.88;58.89;101755.09;5093918;28;20048;-72
2022/09/05 07:36:12;;;;;;;9.65;8.65;;;;;;;24.86;58.94;101767.94;5094548;28;20048;-72
2022/09/05 07:38:42;;;;;;;9.43;7.68;;;;;;;24.85;59.04;101767.06;5094568;28;20052;-73
2022/09/05 07:41:38;;;;;;;8.95;8.05;;;;;;;24.83;59.13;101765.50;5094869;28;20051;-73
2022/09/05 07:44:18;;;;;;;10.10;8.65;;;;;;;24.80;59.06;101769.38;5094809;28;20099;-72
2022/09/05 07:46:57;;;;;;;10.75;8.75;;;;;;;24.80;59.22;101769.38;5094180;28;20048;-72
2022/09/05 07:49:28;;;;;;;8.20;7.38;;;;;;;24.78;59.28;101768.66;5093412;28;20055;-72
2022/09/05 07:52:16;;;;;;;9.68;8.63;;;;;;;24.77;59.50;101768.81;5094079;28;20411;-73
2022/09/05 07:55:38;;;;;;;10.43;8.15;;;;;;;24.76;59.55;101767.09;5093963;28;20494;-73
2022/09/05 07:58:48;;;;;;;8.98;8.07;;;;;;;24.75;59.28;101765.38;5093920;28;20048;-73
2022/09/05 08:01:18;;;;;;;10.20;7.80;;;;;;;24.75;59.66;101771.63;5092458;28;20075;-73
2022/09/05 08:03:53;;;;;;;12.02;8.10;;;;;;;24.76;60.33;101761.69;5094453;28;20487;-74
2022/09/05 08:06:25;;;;;;;14.27;8.35;;;;;;;24.77;60.32;101760.69;5093787;28;20498;-74
2022/09/05 08:09:17;;;;;;;9.80;8.00;;;;;;;24.78;60.04;101762.38;5091577;28;20059;-74
2022/09/05 08:12:13;;;;;;;9.77;7.65;;;;;;;24.77;60.09;101766.09;5093921;28;20067;-73
2022/09/05 08:14:48;;;;;;;9.45;6.60;;;;;;;24.77;59.63;101766.09;5093983;28;20055;-73
2022/09/05 08:17:24;;;;;;;7.10;6.40;;;;;;;24.77;59.42;101772.38;5093865;28;20110;-73
2022/09/05 08:20:06;;;;;;;7.25;6.43;;;;;;;24.77;59.62;101764.25;5093741;28;20498;-73
2022/09/05 08:23:24;;;;;;;7.10;5.78;;;;;;;24.79;59.83;101777.63;5093880;28;20048;-73
2022/09/05 08:26:26;;;;;;;9.00;6.30;;;;;;;24.82;59.89;101774.63;5044081;28;20064;-73
2022/09/05 08:29:08;;;;;;;7.63;6.93;;;;;;;24.83;59.51;101771.81;5051287;28;20048;-73
2022/09/05 08:31:52;;;;;;;8.65;6.43;;;;;;;24.82;59.24;101764.66;5051163;28;20081;-73
2022/09/05 08:34:34;;;;;;;6.03;5.47;;;;;;;24.83;59.37;101755.56;5048748;28;20089;-72
2022/09/05 08:37:20;;;;;;;7.57;5.80;;;;;;;24.87;59.49;101756.97;5050737;28;20063;-73
2022/09/05 08:39:56;;;;;;;6.40;5.80;;;;;;;24.89;59.40;101760.38;5051204;28;20049;-73
2022/09/05 08:42:47;;;;;;;5.47;5.03;;;;;;;24.94;59.68;101761.78;5050173;28;20205;-73
2022/09/05 08:45:40;;;;;;;6.05;5.40;;;;;;;24.97;59.86;101765.06;5051092;28;20063;-73
2022/09/05 08:48:44;;;;;;;5.55;5.05;;;;;;;25.00;60.01;101759.34;5051126;28;20055;-73
2022/09/05 08:51:51;;;;;;;7.13;5.82;;;;;;;25.01;60.47;101760.19;5050758;28;20055;-73
2022/09/05 08:54:44;;;;;;;7.43;5.78;;;;;;;25.02;60.49;101765.47;5051369;28;20052;-72
2022/09/05 08:57:17;;;;;;;5.97;5.47;;;;;;;25.01;60.37;101763.75;5050677;28;20485;-72
2022/09/05 09:00:04;;;;;;;7.10;5.57;;;;;;;25.00;60.35;101753.94;5034561;28;20058;-73
2022/09/05 09:03:11;;;;;;;6.63;5.18;;;;;;;25.02;60.32;101756.47;5078003;28;20407;-73
2022/09/05 09:06:02;;;;;;;6.13;5.53;;;;;;;25.04;60.42;101757.22;5093154;28;20055;-73
2022/09/05 09:09:12;;;;;;;5.65;5.10;;;;;;;25.05;60.13;101748.91;5130589;28;20043;-73
2022/09/05 09:11:42;;;;;;;5.97;4.93;;;;;;;25.07;60.14;101740.63;5132262;28;20516;-73
2022/09/05 09:14:37;;;;;;;5.82;4.72;;;;;;;25.12;59.90;101752.78;5136273;27;20043;-74
2022/09/05 09:17:35;;;;;;;7.40;5.18;;;;;;;25.17;59.43;101740.66;5137876;27;20043;-73
2022/09/05 09:20:15;;;;;;;6.68;4.95;;;;;;;25.23;59.36;101745.47;5138409;27;20069;-73
2022/09/05 09:22:51;;;;;;;8.77;4.93;;;;;;;25.24;58.94;101737.19;5137931;27;20039;-73
2022/09/05 09:25:27;;;;;;;7.18;4.80;;;;;;;25.26;59.09;101734.31;5137797;27;20055;-73
2022/09/05 09:28:37;;;;;;;9.48;5.20;;;;;;;25.26;59.18;101737.03;5138164;27;20040;-73
2022/09/05 09:31:54;;;;;;;8.88;5.50;;;;;;;25.24;58.89;101726.34;5137797;27;20047;-74
2022/09/05 09:34:24;;;;;;;5.88;4.93;;;;;;;25.25;58.89;101727.22;5108835;27;20495;-74
2022/09/05 09:37:17;;;;;;;7.00;4.55;;;;;;;25.28;58.61;101732.31;5114826;28;20040;-75
2022/09/05 09:40:15;;;;;;;5.63;5.10;;;;;;;25.29;58.60;101736.75;5117075;28;20039;-74
2022/09/05 09:42:52;;;;;;;4.72;4.20;;;;;;;25.28;58.35;101733.19;5113637;28;20410;-73
2022/09/05 09:45:32;;;;;;;6.10;4.13;;;;;;;25.29;58.49;101731.31;5117273;28;20044;-74
2022/09/05 09:48:25;;;;;;;5.32;4.82;;;;;;;25.30;58.39;101731.16;5116787;28;20407;-74
2022/09/05 09:51:11;;;;;;;5.07;4.00;;;;;;;25.31;58.21;101729.31;5016896;28;20061;-76
2022/09/05 09:54:16;;;;;;;6.82;4.20;;;;;;;25.31;57.56;101729.31;5034412;28;20056;-74
2022/09/05 09:57:21;;;;;;;5.03;4.10;;;;;;;25.32;58.03;101728.28;5034413;28;20513;-73
2022/09/05 10:00:10;;;;;;;6.85;5.32;;;;;;;25.34;58.11;101726.31;5034470;28;20049;-73
2022/09/05 10:03:09;;;;;;;4.35;3.95;;;;;;;25.33;58.04;101713.75;5033848;28;20555;-73
2022/09/05 10:06:26;;;;;;;4.55;3.90;;;;;;;25.34;57.93;101718.16;5033982;28;20053;-73
2022/09/05 10:09:14;;;;;;;4.32;3.92;;;;;;;25.35;57.91;101717.16;5013855;28;20053;-73
2022/09/05 10:12:14;;;;;;;5.13;3.90;;;;;;;25.34;57.72;101710.88;4997165;28;20545;-73
2022/09/05 10:15:00;;;;;;;4.20;3.80;;;;;;;25.36;57.76;101713.44;5014214;28;20058;-73
2022/09/05 10:18:14;;;;;;;4.25;3.80;;;;;;;25.35;57.49;101706.31;4997005;28;20057;-73
2022/09/05 10:21:23;;;;;;;5.13;4.18;;;;;;;25.35;57.49;101696.31;5013995;28;20054;-73
2022/09/05 10:24:05;;;;;;;3.78;3.45;;;;;;;25.36;57.47;101699.88;5013900;28;20054;-73
2022/09/05 10:26:36;;;;;;;4.40;4.00;;;;;;;25.37;57.31;101688.06;5012992;28;20072;-73
2022/09/05 10:29:12;;;;;;;4.82;3.63;;;;;;;25.37;57.55;101696.19;5087197;28;20052;-73
2022/09/05 10:32:07;;;;;;;4.55;4.07;;;;;;;25.37;57.59;101685.34;5095686;28;20055;-73
2022/09/05 10:35:06;;;;;;;4.43;4.03;;;;;;;25.37;57.52;101686.19;5095279;28;20043;-73
2022/09/05 10:37:53;;;;;;;;;;;;;;;25.37;57.48;101679.94;5096202;28;20055;-73
2022/09/05 10:40:24;;;;;;;6.28;3.45;;;;;;;25.37;57.50;101672.66;5094070;28;19920;-73
2022/09/05 10:42:58;;;;;;;3.75;3.38;;;;;;;25.38;57.35;101674.34;5095869;28;20399;-73
2022/09/05 10:45:42;;;;;;;4.57;3.80;;;;;;;25.38;57.55;101671.63;5095588;28;20384;-73
2022/09/05 10:48:10;;;;;;;4.85;4.43;;;;;;;25.39;57.98;101661.63;5095592;28;20395;-73
2022/09/05 10:50:43;;;;;;;4.35;3.95;;;;;;;25.39;57.81;101662.50;5094508;28;20059;-73
2022/09/05 10:53:16;;;;;;;5.18;4.30;;;;;;;25.40;57.48;101655.22;5094782;28;20436;-74
2022/09/05 10:56:02;;;;;;;6.20;4.20;;;;;;;25.42;56.72;101655.91;5125749;27;20058;-73
2022/09/05 10:58:32;;;;;;;4.43;3.80;;;;;;;25.43;56.04;101652.19;5135937;27;20047;-74
2022/09/05 11:01:38;;;;;;;5.18;4.10;;;;;;;25.43;55.41;101646.78;5136484;27;20493;-74
2022/09/05 11:04:25;;;;;;;4.57;3.83;;;;;;;25.45;55.98;101641.22;5135135;27;20051;-73
2022/09/05 11:06:56;;;;;;;4.82;3.30;;;;;;;25.46;54.54;101640.22;5132923;27;20066;-74
2022/09/05 11:09:38;;;;;;;4.97;4.20;;;;;;;25.47;54.46;101634.63;5114689;28;20043;-72
2022/09/05 11:12:27;;;;;;;4.40;3.40;;;;;;;25.48;54.39;101630.94;5115881;28;20043;-72
2022/09/05 11:14:58;;;;;;;4.22;2.92;;;;;;;25.49;54.16;101624.50;5115158;28;20043;-75
2022/09/05 11:17:38;;;;;;;4.97;3.60;;;;;;;25.50;54.62;101620.78;5115117;28;20047;-74
2022/09/05 11:20:30;;;;;;;3.55;3.15;;;;;;;25.52;54.43;101618.78;5115097;28;20040;-74
2022/09/05 11:23:16;;;;;;;4.40;3.42;;;;;;;25.53;54.23;101620.47;5115379;28;20479;-73
2022/09/05 11:25:46;;;;;;;3.75;3.35;;;;;;;25.57;52.85;101618.31;5096258;28;20048;-73
2022/09/05 11:28:31;;;;;;;3.58;3.20;;;;;;;25.64;52.37;101608.53;5114712;28;20399;-73
2022/09/05 11:31:18;;;;;;;5.10;3.33;;;;;;;25.71;51.82;101606.06;5113729;28;20051;-72
2022/09/05 11:34:01;;;;;;;6.00;3.10;;;;;;;25.75;51.60;101604.75;5113364;28;20043;-72
2022/09/05 11:36:54;;;;;;;3.58;3.13;;;;;;;25.77;51.94;101598.19;5094491;28;20051;-73
2022/09/05 11:40:13;;;;;;;5.03;3.22;;;;;;;25.77;52.41;101598.19;5093795;28;20040;-73
2022/09/05 11:43:06;;;;;;;6.63;3.17;;;;;;;25.76;52.83;101596.44;5094008;28;20059;-73
2022/09/05 11:45:51;;;;;;;6.93;3.78;;;;;;;25.75;53.27;101589.31;5094732;28;20491;-74
2022/09/05 11:48:49;;;;;;;4.25;3.85;;;;;;;25.75;52.98;101588.47;5095259;28;20051;-73
2022/09/05 11:51:30;;;;;;;6.05;3.70;;;;;;;25.74;53.00;101589.47;5094766;28;20241;-74
2022/09/05 11:54:18;;;;;;;4.50;3.13;;;;;;;25.74;53.15;101589.47;5093566;28;20102;-73
2022/09/05 11:56:58;;;;;;;3.95;3.40;;;;;;;25.74;53.13;101586.75;5092590;28;20044;-75
2022/09/05 12:00:00;;;;;;;3.75;3.40;;;;;;;25.74;53.00;101592.19;5094273;28;20048;-77
2022/09/05 12:03:51;;;;;;;3.58;3.25;;;;;;;25.76;52.00;101590.16;5093912;28;20051;-73
2022/09/05 12:07:04;;;;;;;3.30;2.70;;;;;;;26.22;49.58;101575.47;5093994;28;20044;-73
2022/09/05 12:10:10;;;;;;;3.08;2.72;;;;;;;26.21;50.96;101576.50;5094533;28;20048;-73
2022/09/05 12:13:15;;;;;;;4.55;3.08;;;;;;;26.16;50.85;101576.09;5093639;28;20484;-74
2022/09/05 12:15:46;;;;;;;5.43;3.20;;;;;;;26.11;51.27;101567.59;5091939;28;20051;-74
2022/09/05 12:19:02;;;;;;;3.40;2.72;;;;;;;26.06;51.26;101564.50;5093930;28;20048;-74
2022/09/05 12:22:04;;;;;;;4.22;2.97;;;;;;;26.00;51.63;101565.97;5093766;28;20040;-73
2022/09/05 12:24:57;;;;;;;3.17;2.88;;;;;;;25.95;52.16;101554.75;5092166;28;20052;-73
2022/09/05 12:27:50;;;;;;;6.07;3.20;;;;;;;25.92;51.66;101548.78;5093252;28;20044;-72
2022/09/05 12:30:40;;;;;;;3.42;2.95;;;;;;;25.89;51.80;101555.41;5091568;28;20053;-73
2022/09/05 12:33:30;;;;;;;2.85;2.55;;;;;;;25.88;51.77;101548.25;5093355;28;20040;-73
2022/09/05 12:36:20;;;;;;;4.22;3.47;;;;;;;25.86;51.81;101547.56;5092337;28;20492;-73
2022/09/05 12:39:25;;;;;;;4.20;3.20;;;;;;;25.85;51.73;101541.28;5111416;28;20495;-73
2022/09/05 12:42:40;;;;;;;3.50;3.10;;;;;;;25.85;52.20;101535.88;5113418;28;20495;-73
2022/09/05 12:45:33;;;;;;;2.97;2.65;;;;;;;25.85;52.18;101535.03;5113327;28;20036;-74
2022/09/05 12:48:19;;;;;;;3.85;3.03;;;;;;;25.85;52.06;101535.03;5112404;28;20043;-74
2022/09/05 12:50:53;;;;;;;4.78;3.17;;;;;;;26.06;49.88;101530.09;5112678;28;20047;-73
2022/09/05 12:53:23;;;;;;;3.05;2.75;;;;;;;26.14;49.93;101532.84;5113512;28;20055;-73
2022/09/05 12:56:00;;;;;;;4.13;3.20;;;;;;;26.14;50.50;101530.13;5113370;28;20051;-73
2022/09/05 12:58:51;;;;;;;4.32;2.95;;;;;;;26.21;49.66;101537.63;5112691;28;20043;-73
2022/09/05 13:01:43;;;;;;;3.58;2.90;;;;;;;26.22;50.32;101536.63;5111570;28;20055;-73
2022/09/05 13:04:42;;;;;;;4.78;3.20;;;;;;;26.18;50.92;101524.41;5112382;28;20529;-73
2022/09/05 13:07:33;;;;;;;4.82;2.92;;;;;;;26.27;49.47;101518.84;5111482;28;20391;-73
2022/09/05 13:10:19;;;;;;;3.45;3.15;;;;;;;26.29;49.92;101515.94;5112773;28;20051;-72
2022/09/05 13:13:13;;;;;;;3.53;2.95;;;;;;;26.27;49.51;101510.69;5111098;28;20052;-73
2022/09/05 13:16:07;;;;;;;4.38;2.95;;;;;;;26.34;49.65;101508.19;5112274;28;20051;-73
2022/09/05 13:19:01;;;;;;;4.85;3.13;;;;;;;26.29;50.15;101508.69;5113483;28;20044;-73
2022/09/05 13:21:30;;;;;;;4.07;3.00;;;;;;;26.26;50.53;101500.00;5113419;28;20050;-72